createdAt,value
2022-11-05T00:00:36.143Z,87.64
2022-11-05T00:03:21.559Z,87.78
2022-11-05T00:06:11.624Z,87.53
2022-11-05T00:08:58.415Z,87.44
2022-11-05T00:11:45.209Z,87.58
2022-11-05T00:14:30.892Z,87.63
2022-11-05T00:16:57.641Z,88.19
2022-11-05T00:19:24.378Z,87.94
2022-11-05T00:22:09.985Z,88.17
2022-11-05T00:24:55.262Z,88.39
2022-11-05T00:27:21.938Z,88.97
2022-11-05T00:29:49.007Z,88.64
2022-11-05T00:32:18.831Z,88.47
2022-11-05T00:34:45.807Z,88.61
2022-11-05T00:37:12.595Z,88.75
2022-11-05T00:39:39.377Z,88.67
2022-11-05T00:42:25.266Z,88.80
2022-11-05T00:45:01.244Z,89.25
2022-11-05T00:47:47.032Z,89.08
2022-11-05T00:50:14.452Z,89.35
2022-11-05T00:52:56.109Z,89.24
2022-11-05T00:55:42.543Z,89.39
2022-11-05T00:58:18.508Z,89.42
2022-11-05T01:00:57.663Z,89.43
2022-11-05T01:03:34.181Z,89.83
2022-11-05T01:06:16.005Z,89.36
2022-11-05T01:08:45.395Z,89.56
2022-11-05T01:11:33.697Z,89.54
2022-11-05T01:14:08.248Z,89.54
2022-11-05T01:16:35.764Z,89.64
2022-11-05T01:19:04.088Z,89.72
2022-11-05T01:21:30.883Z,89.39
2022-11-05T01:23:57.894Z,89.41
2022-11-05T01:26:24.671Z,89.30
2022-11-05T01:28:56.727Z,89.24
2022-11-05T01:31:25.124Z,89.60
2022-11-05T01:33:52.185Z,89.75
2022-11-05T01:36:19.157Z,89.56
2022-11-05T01:38:46.238Z,89.34
2022-11-05T01:41:13.018Z,89.38
2022-11-05T01:43:48.918Z,89.30
2022-11-05T01:46:39.149Z,89.16
2022-11-05T01:49:32.420Z,89.37
2022-11-05T01:52:03.342Z,89.53
2022-11-05T01:54:32.345Z,89.36
2022-11-05T01:57:04.915Z,89.49
2022-11-05T01:59:43.306Z,89.53
2022-11-05T02:02:10.634Z,89.84
2022-11-05T02:04:47.581Z,90.03
2022-11-05T02:07:15.088Z,90.39
2022-11-05T02:09:54.660Z,90.21
2022-11-05T02:12:23.310Z,90.24
2022-11-05T02:14:50.103Z,90.37
2022-11-05T02:17:19.773Z,90.50
2022-11-05T02:20:23.710Z,90.38
2022-11-05T02:23:29.944Z,90.98
2022-11-05T02:26:12.327Z,90.55
2022-11-05T02:29:00.657Z,90.61
2022-11-05T02:31:37.100Z,90.52
2022-11-05T02:34:35.899Z,90.70
2022-11-05T02:37:24.758Z,90.70
2022-11-05T02:40:25.323Z,91.43
2022-11-05T02:43:20.874Z,91.25
2022-11-05T02:46:17.459Z,90.93
2022-11-05T02:49:07.702Z,90.63
2022-11-05T02:51:59.633Z,90.88
2022-11-05T02:54:46.009Z,91.43
2022-11-05T02:57:13.175Z,91.26
2022-11-05T02:59:39.928Z,91.24
2022-11-05T03:02:07.390Z,91.21
2022-11-05T03:04:34.400Z,91.45
2022-11-05T03:07:07.033Z,91.53
2022-11-05T03:09:54.990Z,91.50
2022-11-05T03:12:39.814Z,91.58
2022-11-05T03:15:09.653Z,91.44
2022-11-05T03:18:06.611Z,91.60
2022-11-05T03:21:05.245Z,91.47
2022-11-05T03:23:44.605Z,91.36
2022-11-05T03:26:33.285Z,91.51
2022-11-05T03:29:06.930Z,91.27
2022-11-05T03:31:36.655Z,91.29
2022-11-05T03:34:05.971Z,91.16
2022-11-05T03:36:41.439Z,91.21
2022-11-05T03:39:15.757Z,91.26
2022-11-05T03:41:47.861Z,90.82
2022-11-05T03:44:24.194Z,91.01
2022-11-05T03:46:57.555Z,90.87
2022-11-05T03:49:43.448Z,90.81
2022-11-05T03:52:17.850Z,90.61
2022-11-05T03:54:44.921Z,90.52
2022-11-05T03:57:35.521Z,90.53
2022-11-05T04:00:07.142Z,90.46
2022-11-05T04:02:34.173Z,90.46
2022-11-05T04:05:01.096Z,90.63
2022-11-05T04:07:46.467Z,90.35
2022-11-05T04:10:31.571Z,90.60
2022-11-05T04:13:16.791Z,90.05
2022-11-05T04:16:01.953Z,90.06
2022-11-05T04:18:28.788Z,90.25
2022-11-05T04:21:14.075Z,90.43
2022-11-05T04:23:59.685Z,90.14
2022-11-05T04:26:26.435Z,90.19
2022-11-05T04:29:11.762Z,90.26
2022-11-05T04:31:38.723Z,90.59
2022-11-05T04:34:05.617Z,90.43
2022-11-05T04:36:32.415Z,90.23
2022-11-05T04:38:59.419Z,90.27
2022-11-05T04:41:26.688Z,90.24
2022-11-05T04:43:53.411Z,90.14
2022-11-05T04:46:20.226Z,90.22
2022-11-05T04:48:46.984Z,90.35
2022-11-05T04:51:13.769Z,90.12
2022-11-05T04:53:40.535Z,90.04
2022-11-05T04:56:19.437Z,90.07
2022-11-05T04:58:46.752Z,90.21
2022-11-05T05:01:20.871Z,90.16
2022-11-05T05:03:49.175Z,89.99
2022-11-05T05:06:17.157Z,90.62
2022-11-05T05:08:43.965Z,90.36
2022-11-05T05:11:13.346Z,90.36
2022-11-05T05:13:40.383Z,90.75
2022-11-05T05:16:10.439Z,91.07
2022-11-05T05:18:39.869Z,90.84
2022-11-05T05:21:29.129Z,90.93
2022-11-05T05:23:55.771Z,91.01
2022-11-05T05:26:22.578Z,91.02
2022-11-05T05:28:49.327Z,91.20
2022-11-05T05:31:16.050Z,91.27
2022-11-05T05:33:42.792Z,91.43
2022-11-05T05:36:11.472Z,91.67
2022-11-05T05:38:38.446Z,91.81
2022-11-05T05:41:05.414Z,92.30
2022-11-05T05:43:33.909Z,92.07
2022-11-05T05:46:05.852Z,92.04
2022-11-05T05:48:32.633Z,92.29
2022-11-05T05:51:07.634Z,92.23
2022-11-05T05:53:34.777Z,92.40
2022-11-05T05:56:01.920Z,92.82
2022-11-05T05:58:38.109Z,92.75
2022-11-05T06:01:18.383Z,93.56
2022-11-05T06:03:46.187Z,93.50
2022-11-05T06:06:14.998Z,93.38
2022-11-05T06:08:42.930Z,93.56
2022-11-05T06:11:10.068Z,93.50
2022-11-05T06:13:37.845Z,93.66
2022-11-05T06:16:08.485Z,93.73
2022-11-05T06:18:36.021Z,93.82
2022-11-05T06:21:08.324Z,93.90
2022-11-05T06:23:38.108Z,94.21
2022-11-05T06:26:09.926Z,94.35
2022-11-05T06:28:36.739Z,94.31
2022-11-05T06:31:04.278Z,94.96
2022-11-05T06:33:31.509Z,95.90
2022-11-05T06:35:59.900Z,95.75
2022-11-05T06:38:27.556Z,96.12
2022-11-05T06:40:54.303Z,96.35
2022-11-05T06:43:21.066Z,96.72
2022-11-05T06:45:47.840Z,96.88
2022-11-05T06:48:14.781Z,97.30
2022-11-05T06:50:45.419Z,97.56
2022-11-05T06:53:13.721Z,97.47
2022-11-05T06:55:40.986Z,97.30
2022-11-05T06:58:07.899Z,98.08
2022-11-05T07:00:34.705Z,97.54
2022-11-05T07:03:07.091Z,98.05
2022-11-05T07:05:37.753Z,97.91
2022-11-05T07:08:04.745Z,98.67
2022-11-05T07:10:31.878Z,98.40
2022-11-05T07:13:02.411Z,98.42
2022-11-05T07:15:32.008Z,98.65
2022-11-05T07:18:00.423Z,98.70
2022-11-05T07:20:32.422Z,98.80
2022-11-05T07:23:07.093Z,99.14
2022-11-05T07:25:34.516Z,99.10
2022-11-05T07:28:02.325Z,99.10
2022-11-05T07:30:30.062Z,99.02
2022-11-05T07:32:57.011Z,99.21
2022-11-05T07:35:24.129Z,99.45
2022-11-05T07:37:54.156Z,99.44
2022-11-05T07:40:23.779Z,99.46
2022-11-05T07:42:53.967Z,99.47
2022-11-05T07:45:21.410Z,99.74
2022-11-05T07:47:58.242Z,99.61
2022-11-05T07:50:29.727Z,100.00
2022-11-05T07:53:10.353Z,100.00
2022-11-05T07:55:38.230Z,99.86
2022-11-05T07:58:04.993Z,100.00
2022-11-05T08:00:33.549Z,100.00
2022-11-05T08:03:08.993Z,100.00
2022-11-05T08:05:39.427Z,100.00
2022-11-05T08:08:10.769Z,100.00
2022-11-05T08:10:38.532Z,100.00
2022-11-05T08:13:06.982Z,100.00
2022-11-05T08:15:34.960Z,100.00
2022-11-05T08:18:08.122Z,100.00
2022-11-05T08:20:36.121Z,100.00
2022-11-05T08:23:03.025Z,100.00
2022-11-05T08:25:31.883Z,100.00
2022-11-05T08:28:02.025Z,100.00
2022-11-05T08:30:29.962Z,100.00
2022-11-05T08:32:59.522Z,100.00
2022-11-05T08:35:27.742Z,100.00
2022-11-05T08:38:03.215Z,100.00
2022-11-05T08:40:33.300Z,100.00
2022-11-05T08:43:02.780Z,100.00
2022-11-05T08:45:30.352Z,100.00
2022-11-05T08:48:07.092Z,100.00
2022-11-05T08:50:34.557Z,100.00
2022-11-05T08:53:01.632Z,100.00
2022-11-05T08:55:29.166Z,100.00
2022-11-05T08:58:03.722Z,100.00
2022-11-05T09:00:34.367Z,100.00
2022-11-05T09:03:05.259Z,100.00
2022-11-05T09:05:37.938Z,100.00
2022-11-05T09:08:11.461Z,100.00
2022-11-05T09:10:38.980Z,100.00
2022-11-05T09:13:06.694Z,100.00
2022-11-05T09:15:35.728Z,100.00
2022-11-05T09:18:05.840Z,100.00
2022-11-05T09:20:33.930Z,100.00
2022-11-05T09:23:00.750Z,100.00
2022-11-05T09:25:27.639Z,100.00
2022-11-05T09:27:54.414Z,100.00
2022-11-05T09:30:21.161Z,100.00
2022-11-05T09:32:48.366Z,100.00
2022-11-05T09:35:15.179Z,100.00
2022-11-05T09:37:41.986Z,100.00
2022-11-05T09:40:17.144Z,100.00
2022-11-05T09:42:52.510Z,100.00
2022-11-05T09:45:23.446Z,100.00
2022-11-05T09:48:06.186Z,100.00
2022-11-05T09:50:40.655Z,100.00
2022-11-05T09:53:10.258Z,100.00
2022-11-05T09:55:42.322Z,100.00
2022-11-05T09:58:29.575Z,100.00
2022-11-05T10:00:58.356Z,100.00
2022-11-05T10:03:28.669Z,100.00
2022-11-05T10:06:07.698Z,100.00
2022-11-05T10:08:42.364Z,100.00
2022-11-05T10:11:17.746Z,99.87
2022-11-05T10:13:53.277Z,99.19
2022-11-05T10:16:36.798Z,98.81
2022-11-05T10:19:24.732Z,99.02
2022-11-05T10:22:07.157Z,98.76
2022-11-05T10:24:35.004Z,98.47
2022-11-05T10:27:02.210Z,98.33
2022-11-05T10:29:32.628Z,98.06
2022-11-05T10:32:03.847Z,97.93
2022-11-05T10:34:37.422Z,98.07
2022-11-05T10:37:04.625Z,97.45
2022-11-05T10:39:34.113Z,97.47
2022-11-05T10:42:24.606Z,97.41
2022-11-05T10:44:51.285Z,97.49
2022-11-05T10:47:43.849Z,97.15
2022-11-05T10:50:30.648Z,96.98
2022-11-05T10:53:01.913Z,96.90
2022-11-05T10:55:40.186Z,96.77
2022-11-05T10:58:32.395Z,96.92
2022-11-05T11:00:59.215Z,97.00
2022-11-05T11:03:42.586Z,96.54
2022-11-05T11:06:28.301Z,96.68
2022-11-05T11:08:58.294Z,96.58
2022-11-05T11:11:41.118Z,96.20
2022-11-05T11:14:14.373Z,96.50
2022-11-05T11:16:47.445Z,96.76
2022-11-05T11:19:28.667Z,96.83
2022-11-05T11:22:04.547Z,96.62
2022-11-05T11:24:54.171Z,96.83
2022-11-05T11:27:28.796Z,97.12
2022-11-05T11:29:59.801Z,96.90
2022-11-05T11:32:39.610Z,96.85
2022-11-05T11:35:25.065Z,96.82
2022-11-05T11:37:56.156Z,96.74
2022-11-05T11:40:30.913Z,96.15
2022-11-05T11:43:05.271Z,96.23
2022-11-05T11:45:36.495Z,96.19
2022-11-05T11:48:07.153Z,95.92
2022-11-05T11:50:33.927Z,95.79
2022-11-05T11:53:20.499Z,95.56
2022-11-05T11:55:56.561Z,96.04
2022-11-05T11:58:55.670Z,95.79
2022-11-05T12:01:48.994Z,96.33
2022-11-05T12:04:43.674Z,96.41
2022-11-05T12:07:28.315Z,96.29
2022-11-05T12:10:11.306Z,96.06
2022-11-05T12:13:18.296Z,96.02
2022-11-05T12:16:13.044Z,95.64
2022-11-05T12:19:15.194Z,95.67
2022-11-05T12:22:22.062Z,95.70
2022-11-05T12:25:36.416Z,95.50
2022-11-05T12:29:16.557Z,95.87
2022-11-05T12:31:55.421Z,95.69
2022-11-05T12:35:10.837Z,95.62
2022-11-05T12:37:56.046Z,95.35
2022-11-05T12:40:56.424Z,95.55
2022-11-05T12:43:51.503Z,95.38
2022-11-05T12:46:32.332Z,95.25
2022-11-05T12:49:02.407Z,94.71
2022-11-05T12:52:21.258Z,94.60
2022-11-05T12:55:17.158Z,94.55
2022-11-05T12:57:46.234Z,94.39
2022-11-05T13:00:25.689Z,94.25
2022-11-05T13:03:30.491Z,93.99
2022-11-05T13:06:09.306Z,93.81
2022-11-05T13:08:44.517Z,93.85
2022-11-05T13:11:26.671Z,93.79
2022-11-05T13:14:08.561Z,93.58
2022-11-05T13:16:40.852Z,93.69
2022-11-05T13:19:24.687Z,93.58
2022-11-05T13:22:09.752Z,93.31
2022-11-05T13:24:49.432Z,93.84
2022-11-05T13:27:19.059Z,93.45
2022-11-05T13:29:53.060Z,93.61
2022-11-05T13:32:38.666Z,92.87
2022-11-05T13:35:15.176Z,93.03
2022-11-05T13:38:04.166Z,93.32
2022-11-05T13:41:00.274Z,92.88
2022-11-05T13:43:48.458Z,93.08
2022-11-05T13:46:27.359Z,93.25
2022-11-05T13:49:00.090Z,92.71
2022-11-05T13:51:44.666Z,92.76
2022-11-05T13:54:38.351Z,92.58
2022-11-05T13:57:31.431Z,92.28
2022-11-05T14:00:11.558Z,92.21
2022-11-05T14:03:04.061Z,92.23
2022-11-05T14:05:34.757Z,92.02
2022-11-05T14:08:13.415Z,92.11
2022-11-05T14:11:01.429Z,91.47
2022-11-05T14:13:44.286Z,92.13
2022-11-05T14:16:21.613Z,92.06
2022-11-05T14:19:20.772Z,91.86
2022-11-05T14:21:58.605Z,92.13
2022-11-05T14:24:43.488Z,91.48
2022-11-05T14:27:41.357Z,91.50
2022-11-05T14:30:42.238Z,91.29
2022-11-05T14:33:30.487Z,91.07
2022-11-05T14:36:20.396Z,91.42
2022-11-05T14:38:53.795Z,91.25
2022-11-05T14:41:21.766Z,91.58
2022-11-05T14:44:05.179Z,91.32
2022-11-05T14:46:49.345Z,91.58
2022-11-05T14:49:22.330Z,91.27
2022-11-05T14:52:00.447Z,91.89
2022-11-05T14:54:50.335Z,92.30
2022-11-05T14:57:42.935Z,92.54
2022-11-05T15:00:40.775Z,92.49
2022-11-05T15:03:41.106Z,92.49
2022-11-05T15:06:22.277Z,92.68
2022-11-05T15:08:48.988Z,93.16
2022-11-05T15:11:29.560Z,93.28
2022-11-05T15:14:05.888Z,93.06
2022-11-05T15:16:50.751Z,93.03
2022-11-05T15:19:28.037Z,92.99
2022-11-05T15:22:00.989Z,93.43
2022-11-05T15:24:28.417Z,92.96
2022-11-05T15:27:27.108Z,93.01
2022-11-05T15:29:54.013Z,92.93
2022-11-05T15:32:26.666Z,93.02
2022-11-05T15:34:56.156Z,93.22
2022-11-05T15:37:26.717Z,93.17
2022-11-05T15:39:55.558Z,93.15
2022-11-05T15:42:27.168Z,93.01
2022-11-05T15:44:59.588Z,93.38
2022-11-05T15:47:34.242Z,93.31
2022-11-05T15:50:14.898Z,93.69
2022-11-05T15:52:51.830Z,93.87
2022-11-05T15:55:24.189Z,93.44
2022-11-05T15:57:58.994Z,93.65
2022-11-05T16:00:29.543Z,93.78
2022-11-05T16:03:17.765Z,94.08
2022-11-05T16:05:47.968Z,94.15
2022-11-05T16:08:22.603Z,94.33
2022-11-05T16:10:53.312Z,94.34
2022-11-05T16:13:33.815Z,94.62
2022-11-05T16:16:26.283Z,94.73
2022-11-05T16:18:53.126Z,94.95
2022-11-05T16:21:23.301Z,95.38
2022-11-05T16:23:50.044Z,95.53
2022-11-05T16:29:52.970Z,96.58
2022-11-05T16:32:31.782Z,96.17
2022-11-05T16:35:05.737Z,96.79
2022-11-05T16:37:41.851Z,97.35
2022-11-05T16:40:20.646Z,97.82
2022-11-05T16:42:48.723Z,97.89
2022-11-05T16:45:18.954Z,97.92
2022-11-05T16:47:46.306Z,98.20
2022-11-05T16:50:18.583Z,98.65
2022-11-05T16:52:46.662Z,99.12
2022-11-05T16:55:15.693Z,99.08
2022-11-05T16:57:47.143Z,99.65
2022-11-05T17:00:17.495Z,99.79
2022-11-05T17:02:45.478Z,100.00
2022-11-05T17:05:24.966Z,100.00
2022-11-05T17:07:53.020Z,100.00
2022-11-05T17:10:21.851Z,100.00
2022-11-05T17:12:48.926Z,99.70
2022-11-05T17:15:31.890Z,99.70
2022-11-05T17:17:59.629Z,98.93
2022-11-05T17:20:38.277Z,99.13
2022-11-05T17:23:09.132Z,98.53
2022-11-05T17:25:36.556Z,98.35
2022-11-05T17:28:04.162Z,97.67
2022-11-05T17:30:31.402Z,97.36
2022-11-05T17:32:59.082Z,97.18
2022-11-05T17:35:26.957Z,97.17
2022-11-05T17:37:54.294Z,97.05
2022-11-05T17:40:23.574Z,97.02
2022-11-05T17:42:52.008Z,96.71
2022-11-05T17:45:19.055Z,96.66
2022-11-05T17:47:46.357Z,96.46
2022-11-05T17:50:15.975Z,96.39
2022-11-05T17:52:42.982Z,96.06
2022-11-05T17:55:16.853Z,95.63
2022-11-05T17:57:50.520Z,94.67
2022-11-05T18:00:23.392Z,94.72
2022-11-05T18:02:53.418Z,94.28
2022-11-05T18:05:22.882Z,95.01
2022-11-05T18:07:50.177Z,95.11
2022-11-05T18:10:17.836Z,95.01
2022-11-05T18:12:45.384Z,94.77
2022-11-05T18:15:13.043Z,94.77
2022-11-05T18:17:39.910Z,94.11
2022-11-05T18:20:12.836Z,93.80
2022-11-05T18:22:43.518Z,93.12
2022-11-05T18:25:12.065Z,93.73
2022-11-05T18:27:40.198Z,93.89
2022-11-05T18:30:08.989Z,93.41
2022-11-05T18:32:36.177Z,93.79
2022-11-05T18:35:03.278Z,93.65
2022-11-05T18:37:30.179Z,93.76
2022-11-05T18:39:57.039Z,93.89
2022-11-05T18:42:24.917Z,94.50
2022-11-05T18:44:51.770Z,94.87
2022-11-05T18:47:18.526Z,95.47
2022-11-05T18:49:45.302Z,95.83
2022-11-05T18:52:12.220Z,95.99
2022-11-05T18:54:39.138Z,96.28
2022-11-05T18:57:06.251Z,96.50
2022-11-05T18:59:38.734Z,96.55
2022-11-05T19:02:08.825Z,96.13
2022-11-05T19:04:37.018Z,95.70
2022-11-05T19:07:05.760Z,95.44
2022-11-05T19:09:38.164Z,95.73
2022-11-05T19:12:07.291Z,95.50
2022-11-05T19:14:35.463Z,95.49
2022-11-05T19:17:02.642Z,95.80
2022-11-05T19:19:29.494Z,95.24
2022-11-05T19:21:56.809Z,95.80
2022-11-05T19:24:23.742Z,95.72
2022-11-05T19:26:50.742Z,96.04
2022-11-05T19:29:18.294Z,95.63
2022-11-05T19:31:45.720Z,95.64
2022-11-05T19:34:13.651Z,95.53
2022-11-05T19:36:42.443Z,95.34
2022-11-05T19:39:15.061Z,94.94
2022-11-05T19:41:42.291Z,94.82
2022-11-05T19:44:09.314Z,94.55
2022-11-05T19:46:36.190Z,94.42
2022-11-05T19:49:03.356Z,94.32
2022-11-05T19:51:32.436Z,94.45
2022-11-05T19:54:01.615Z,95.37
2022-11-05T19:56:32.468Z,95.64
2022-11-05T19:59:00.796Z,95.27
2022-11-05T20:01:29.720Z,95.40
2022-11-05T20:03:59.108Z,95.27
2022-11-05T20:06:32.067Z,95.06
2022-11-05T20:11:50.124Z,94.77
2022-11-05T20:14:17.373Z,94.86
2022-11-05T20:16:46.582Z,94.74
2022-11-05T20:19:17.469Z,94.48
2022-11-05T20:21:44.785Z,94.36
2022-11-05T20:24:18.628Z,94.06
2022-11-05T20:26:49.364Z,94.14
2022-11-05T20:29:16.389Z,94.16
2022-11-05T20:31:43.281Z,94.18
2022-11-05T20:34:10.614Z,94.19
2022-11-05T20:36:37.455Z,94.55
2022-11-05T20:39:05.831Z,94.84
2022-11-05T20:41:33.322Z,94.98
2022-11-05T20:44:00.138Z,94.94
2022-11-05T20:46:27.359Z,94.48
2022-11-05T20:48:54.539Z,94.69
2022-11-05T20:51:23.330Z,94.28
2022-11-05T20:53:55.823Z,94.51
2022-11-05T20:56:30.253Z,94.80
2022-11-05T20:58:59.164Z,94.67
2022-11-05T21:01:29.390Z,94.66
2022-11-05T21:03:57.344Z,94.59
2022-11-05T21:06:24.150Z,94.54
2022-11-05T21:08:52.353Z,94.74
2022-11-05T21:11:20.229Z,94.60
2022-11-05T21:13:47.509Z,94.81
2022-11-05T21:16:18.429Z,95.30
2022-11-05T21:18:46.251Z,95.15
2022-11-05T21:21:19.558Z,95.38
2022-11-05T21:23:46.453Z,95.59
2022-11-05T21:26:15.131Z,95.29
2022-11-05T21:28:41.974Z,95.28
2022-11-05T21:31:09.678Z,95.74
2022-11-05T21:33:37.650Z,95.20
2022-11-05T21:36:11.803Z,95.13
2022-11-05T21:38:39.524Z,95.25
2022-11-05T21:41:08.309Z,95.56
2022-11-05T21:43:35.390Z,95.61
2022-11-05T21:46:04.715Z,95.51
2022-11-05T21:48:32.603Z,95.27
2022-11-05T21:51:17.987Z,95.63
2022-11-05T21:54:03.222Z,95.47
2022-11-05T21:56:49.316Z,95.35
2022-11-05T21:59:38.750Z,95.08
2022-11-05T22:02:08.385Z,95.27
2022-11-05T22:04:41.936Z,95.07
2022-11-05T22:07:11.264Z,95.17
2022-11-05T22:09:38.407Z,94.96
2022-11-05T22:12:05.872Z,95.15
2022-11-05T22:14:33.009Z,95.07
2022-11-05T22:17:00.529Z,94.96
2022-11-05T22:19:28.033Z,95.03
2022-11-05T22:21:54.830Z,94.90
2022-11-05T22:24:21.942Z,94.96
2022-11-05T22:26:49.590Z,94.98
2022-11-05T22:29:17.290Z,95.14
2022-11-05T22:31:44.255Z,94.99
2022-11-05T22:34:11.684Z,95.16
2022-11-05T22:36:39.147Z,94.78
2022-11-05T22:39:06.287Z,94.72
2022-11-05T22:41:33.398Z,94.70
2022-11-05T22:44:00.281Z,94.92
2022-11-05T22:46:27.797Z,94.94
2022-11-05T22:48:56.398Z,94.77
2022-11-05T22:51:30.612Z,94.67
2022-11-05T22:53:58.933Z,94.62
2022-11-05T22:56:29.994Z,94.99
2022-11-05T22:58:57.524Z,94.78
2022-11-05T23:01:24.957Z,95.06
2022-11-05T23:03:55.828Z,95.21
2022-11-05T23:06:50.314Z,95.26
2022-11-05T23:09:50.389Z,95.20
2022-11-05T23:12:34.114Z,94.97
2022-11-05T23:15:05.803Z,95.45
2022-11-05T23:17:51.129Z,95.21
2022-11-05T23:20:41.970Z,95.80
2022-11-05T23:23:31.974Z,95.04
2022-11-05T23:26:00.390Z,95.06
2022-11-05T23:28:27.329Z,95.25
2022-11-05T23:31:12.509Z,95.12
2022-11-05T23:33:39.283Z,95.30
2022-11-05T23:36:24.986Z,95.07
2022-11-05T23:38:51.888Z,94.57
2022-11-05T23:41:37.726Z,94.40
2022-11-05T23:44:23.519Z,94.37
2022-11-05T23:47:08.893Z,94.56
2022-11-05T23:49:35.838Z,94.94
2022-11-05T23:52:02.648Z,94.80
2022-11-05T23:54:29.645Z,94.72
2022-11-05T23:56:56.396Z,94.78
2022-11-05T23:59:23.209Z,95.09
